21-й км

Карта отелей и гостиниц, располагающихся рядом с аэропортом 21-й км :

21-й км Чукотский автономный округ 69° 36' 7.9704" N, 170° 44' 1.9392" E
21-й км Чукотский автономный округ 69° 36' 7.9704" N, 170° 44' 1.9392" E
Код аэродрома ИКАО: 
HE75
Код аэродрома RU: 
ХЕ75
Координаты: 
N69.60221° E170.73387°
Превышение над уровнем моря : 
172
Основная полоса: 
02/20
Курс магнитный: 
023,9/203,9
Длина основной ВПП: 
51
Ширина основной ВПП: 
40
Покрытие основной ВПП: 
Твёрдое
Освещение ВПП: 
Нет
Тип: 
Вертодром
Класс аэродрома: 
Принадлежность: 
АОН
Статус: 
Действующий
Сайт: 
E-mail аэродрома: 
Страна: 
Россия
Регион: 
Чукотский автономный округ
Город: 
Дополнительная информация: 
Владелец ПП: «Чукотская Горно-Геологическая компания», структурное подразделение компании «Кинросс Дальний Восток».

Найти трансфер

С помощью этой формы Вы можете найти трансфер из аэропорта 21-й км в город, аэропорт или вокзал:

Карта места

Javascript is required to view this map.

Погода в аэропортах:

Авиационная погода в Перми

Регион: 
Погода METAR: 
USPP 270730Z VRB01MPS 5000 FU NSC 15/08 Q1033 R21/090060 NOSIG RMK QFE764
Время наблюдения: 
2020-09-27T07:30:00Z
Температура C: 
15.0
Точка росы: 
8.0
Направление ветра: 
0
Скорость ветра (узлы): 
2
Метеорологическая видимость: 
3.11
Явления погоды: 
FU
Условия полета: 
MVFR
Аэропорт подробнее: 

Авиационная погода в Игнатьево

Регион: 
Погода METAR: 
UHBB 270730Z 35003MPS 5000 BR FEW010 BKN033CB 14/13 Q1010 R36/290250 NOSIG RMK QFE740/0987
Время наблюдения: 
2020-09-27T07:30:00Z
Температура C: 
14.0
Точка росы: 
13.0
Направление ветра: 
350
Скорость ветра (узлы): 
6
Метеорологическая видимость: 
3.11
Явления погоды: 
BR
Условия полета: 
MVFR
Аэропорт подробнее: 

Авиационная погода в Гостомеле

Регион: 
Погода METAR: 
UKKM 270730Z AUTO 10004MPS 070V130 9999 -SHUP BKN070CB 16/11 Q1006
Время наблюдения: 
2020-09-27T07:30:00Z
Температура C: 
16.0
Точка росы: 
11.0
Направление ветра: 
100
Скорость ветра (узлы): 
8
Метеорологическая видимость: 
6.21
Явления погоды: 
SH UP
Условия полета: 
VFR
Аэропорт подробнее: 

Авиационная погода в Хомутово

Регион: 
Погода METAR: 
UHSS 270730Z 35006MPS 9999 -SHRA BKN032CB 08/06 Q1016 R01/250255 NOSIG RMK MT OBSC QFE761/1014
Время наблюдения: 
2020-09-27T07:30:00Z
Температура C: 
8.0
Точка росы: 
6.0
Направление ветра: 
350
Скорость ветра (узлы): 
12
Метеорологическая видимость: 
6.21
Явления погоды: 
-SHRA
Условия полета: 
VFR
Аэропорт подробнее: